createdAt,value
2023-03-27T00:01:18.787Z,102145.41
2023-03-27T00:03:50.318Z,102143.63
2023-03-27T00:06:20.523Z,102144.59
2023-03-27T00:08:54.026Z,102149.06
2023-03-27T00:11:25.580Z,102141.06
2023-03-27T00:13:57.032Z,102133.13
2023-03-27T00:16:28.409Z,102139.34
2023-03-27T00:18:57.302Z,102136.78
2023-03-27T00:21:26.761Z,102142.13
2023-03-27T00:23:55.406Z,102144.75
2023-03-27T00:26:24.028Z,102141.03
2023-03-27T00:28:52.350Z,102138.28
2023-03-27T00:31:20.725Z,102140.16
2023-03-27T00:33:48.965Z,102134.97
2023-03-27T00:36:17.289Z,102137.66
2023-03-27T00:38:46.584Z,102144.78
2023-03-27T00:41:15.009Z,102135.81
2023-03-27T00:43:45.026Z,102140.22
2023-03-27T00:46:32.384Z,102149.19
2023-03-27T00:49:04.974Z,102138.53
2023-03-27T00:51:34.189Z,102141.09
2023-03-27T00:54:02.758Z,102140.22
2023-03-27T00:56:31.550Z,102142.91
2023-03-27T00:59:07.508Z,102142.22
2023-03-27T01:01:36.020Z,102143.25
2023-03-27T01:04:07.799Z,102139.78
2023-03-27T01:06:37.087Z,102145.97
2023-03-27T01:09:05.794Z,102153.13
2023-03-27T01:11:58.097Z,102145.38
2023-03-27T01:14:56.030Z,102140.22
2023-03-27T01:17:45.480Z,102151.81
2023-03-27T01:20:34.827Z,102144.75
2023-03-27T01:23:59.590Z,102152.06
2023-03-27T01:26:36.195Z,102146.94
2023-03-27T01:29:41.965Z,102147.91
2023-03-27T01:32:27.942Z,102147.09
2023-03-27T01:35:14.143Z,102148.97
2023-03-27T01:38:06.314Z,102142.94
2023-03-27T01:40:44.714Z,102150.19
2023-03-27T01:43:18.642Z,102151.22
2023-03-27T01:45:56.292Z,102153.97
2023-03-27T01:48:38.712Z,102159.34
2023-03-27T01:51:17.133Z,102162.97
2023-03-27T01:53:53.389Z,102160.44
2023-03-27T01:56:29.121Z,102159.66
2023-03-27T01:59:05.904Z,102165.06
2023-03-27T02:01:45.480Z,102157.19
2023-03-27T02:04:22.027Z,102161.69
2023-03-27T02:06:54.928Z,102164.41
2023-03-27T02:09:39.706Z,102166.28
2023-03-27T02:12:13.058Z,102169.88
2023-03-27T02:14:49.402Z,102160.25
2023-03-27T02:17:19.594Z,102168.28
2023-03-27T02:19:55.356Z,102170.13
2023-03-27T02:22:37.507Z,102163.13
2023-03-27T02:25:27.832Z,102168.53
2023-03-27T02:28:30.139Z,102176.59
2023-03-27T02:31:33.020Z,102168.69
2023-03-27T02:34:39.104Z,102168.69
2023-03-27T02:37:17.088Z,102176.72
2023-03-27T02:40:19.787Z,102173.25
2023-03-27T02:43:02.892Z,102187.41
2023-03-27T02:45:54.586Z,102172.41
2023-03-27T02:48:46.451Z,102189.28
2023-03-27T02:51:37.960Z,102192.81
2023-03-27T02:54:20.118Z,102193.72
2023-03-27T02:56:53.971Z,102191.97
2023-03-27T02:59:31.944Z,102198.22
2023-03-27T03:02:02.275Z,102191.16
2023-03-27T03:04:35.937Z,102200.91
2023-03-27T03:07:07.231Z,102204.47
2023-03-27T03:09:40.417Z,102203.59
2023-03-27T03:12:09.873Z,102208.91
2023-03-27T03:14:41.132Z,102208.94
2023-03-27T03:17:09.286Z,102208.06
2023-03-27T03:19:37.995Z,102216.03
2023-03-27T03:22:07.013Z,102215.16
2023-03-27T03:24:36.510Z,102212.53
2023-03-27T03:27:06.552Z,102211.69
2023-03-27T03:29:37.802Z,102207.28
2023-03-27T03:32:07.264Z,102211.72
2023-03-27T03:34:35.496Z,102215.28
2023-03-27T03:37:03.717Z,102222.34
2023-03-27T03:39:32.004Z,102218.84
2023-03-27T03:42:00.204Z,102226.81
2023-03-27T03:44:28.664Z,102220.66
2023-03-27T03:46:56.895Z,102228.63
2023-03-27T03:49:25.122Z,102236.59
2023-03-27T03:52:03.684Z,102243.69
2023-03-27T03:54:33.831Z,102247.22
2023-03-27T03:57:03.926Z,102242.81
2023-03-27T03:59:32.453Z,102250.78
2023-03-27T04:02:01.384Z,102251.66
2023-03-27T04:04:30.746Z,102262.28
2023-03-27T04:06:59.031Z,102250.81
2023-03-27T04:09:27.291Z,102257.00
2023-03-27T04:11:55.501Z,102256.13
2023-03-27T04:14:23.701Z,102262.31
2023-03-27T04:16:51.929Z,102269.38
2023-03-27T04:19:20.162Z,102265.00
2023-03-27T04:21:48.520Z,102265.00
2023-03-27T04:24:19.034Z,102269.41
2023-03-27T04:26:48.753Z,102269.44
2023-03-27T04:29:17.006Z,102275.66
2023-03-27T04:31:47.293Z,102278.28
2023-03-27T04:34:15.630Z,102280.06
2023-03-27T04:36:43.931Z,102285.38
2023-03-27T04:39:12.185Z,102282.72
2023-03-27T04:41:40.534Z,102288.03
2023-03-27T04:44:08.763Z,102295.09
2023-03-27T04:46:37.078Z,102294.22
2023-03-27T04:49:05.558Z,102291.56
2023-03-27T04:51:33.740Z,102298.63
2023-03-27T04:54:05.539Z,102295.97
2023-03-27T04:56:35.925Z,102299.53
2023-03-27T04:59:04.651Z,102297.75
2023-03-27T05:01:33.317Z,102299.50
2023-03-27T05:04:03.231Z,102306.59
2023-03-27T05:06:31.496Z,102300.38
2023-03-27T05:09:00.203Z,102297.72
2023-03-27T05:11:28.482Z,102302.16
2023-03-27T05:13:56.781Z,102301.25
2023-03-27T05:16:27.401Z,102299.50
2023-03-27T05:18:55.662Z,102301.25
2023-03-27T05:21:23.958Z,102295.09
2023-03-27T05:23:52.492Z,102302.16
2023-03-27T05:26:20.714Z,102297.72
2023-03-27T05:28:48.944Z,102298.63
2023-03-27T05:31:17.218Z,102303.91
2023-03-27T05:33:46.034Z,102299.50
2023-03-27T05:36:16.109Z,102291.56
2023-03-27T05:38:45.483Z,102295.09
2023-03-27T05:41:13.918Z,102305.69
2023-03-27T05:43:42.474Z,102307.44
2023-03-27T05:46:10.833Z,102307.41
2023-03-27T05:48:39.495Z,102310.94
2023-03-27T05:51:08.301Z,102312.72
2023-03-27T05:53:40.305Z,102306.53
2023-03-27T05:56:09.545Z,102318.00
2023-03-27T05:58:38.015Z,102319.75
2023-03-27T06:01:06.731Z,102314.47
2023-03-27T06:03:39.240Z,102312.72
2023-03-27T06:06:13.160Z,102315.34
2023-03-27T06:08:42.160Z,102312.69
2023-03-27T06:11:12.331Z,102315.34
2023-03-27T06:13:40.600Z,102308.28
2023-03-27T06:16:09.351Z,102313.53
2023-03-27T06:18:37.610Z,102319.69
2023-03-27T06:21:06.509Z,102318.81
2023-03-27T06:23:34.889Z,102322.28
2023-03-27T06:26:03.136Z,102328.44
2023-03-27T06:28:31.646Z,102330.19
2023-03-27T06:31:00.545Z,102325.72
2023-03-27T06:33:28.782Z,102330.09
2023-03-27T06:36:01.189Z,102330.03
2023-03-27T06:38:32.958Z,102330.88
2023-03-27T06:41:01.538Z,102337.84
2023-03-27T06:43:29.786Z,102336.91
2023-03-27T06:45:58.870Z,102330.72
2023-03-27T06:48:27.307Z,102333.34
2023-03-27T06:50:55.926Z,102324.47
2023-03-27T06:53:27.858Z,102329.72
2023-03-27T06:55:58.052Z,102320.88
2023-03-27T06:58:26.713Z,102318.25
2023-03-27T07:00:55.043Z,102330.56
2023-03-27T07:03:27.767Z,102327.97
2023-03-27T07:05:56.390Z,102327.94
2023-03-27T07:08:25.951Z,102328.72
2023-03-27T07:13:26.497Z,102336.53
2023-03-27T07:15:55.751Z,102333.84
2023-03-27T07:18:24.302Z,102328.50
2023-03-27T07:20:52.736Z,102332.84
2023-03-27T07:23:20.993Z,102328.44
2023-03-27T07:25:50.834Z,102328.44
2023-03-27T07:28:21.764Z,102331.94
2023-03-27T07:30:49.937Z,102338.97
2023-03-27T07:33:18.318Z,102335.44
2023-03-27T07:35:49.182Z,102338.09
2023-03-27T07:38:19.138Z,102346.00
2023-03-27T07:40:47.373Z,102340.72
2023-03-27T07:43:15.582Z,102340.66
2023-03-27T07:45:44.012Z,102331.84
2023-03-27T07:48:17.196Z,102332.66
2023-03-27T07:50:49.209Z,102334.38
2023-03-27T07:53:32.572Z,102325.53
2023-03-27T07:56:03.185Z,102335.22
2023-03-27T07:58:31.568Z,102333.41
2023-03-27T08:01:01.436Z,102329.84
2023-03-27T08:03:31.724Z,102330.66
2023-03-27T08:06:01.975Z,102334.19
2023-03-27T08:08:30.537Z,102332.41
2023-03-27T08:11:00.899Z,102321.00
2023-03-27T08:13:30.192Z,102328.91
2023-03-27T08:16:09.607Z,102327.16
2023-03-27T08:18:38.836Z,102328.03
2023-03-27T08:21:09.287Z,102326.19
2023-03-27T08:23:40.359Z,102325.25
2023-03-27T08:26:10.328Z,102316.41
2023-03-27T08:28:40.127Z,102318.16
2023-03-27T08:31:16.552Z,102318.16
2023-03-27T08:33:46.665Z,102309.31
2023-03-27T08:36:17.429Z,102318.03
2023-03-27T08:38:47.204Z,102315.38
2023-03-27T08:41:39.805Z,102316.19
2023-03-27T08:44:15.117Z,102312.63
2023-03-27T08:47:01.604Z,102312.63
2023-03-27T08:49:36.405Z,102303.81
2023-03-27T08:52:16.849Z,102302.84
2023-03-27T08:54:54.530Z,102304.53
2023-03-27T08:57:25.346Z,102301.91
2023-03-27T09:00:00.173Z,102301.84
2023-03-27T09:02:46.719Z,102295.69
2023-03-27T09:05:49.252Z,102286.03
2023-03-27T09:08:41.726Z,102286.81
2023-03-27T09:11:17.980Z,102285.91
2023-03-27T09:13:53.587Z,102295.50
2023-03-27T09:16:33.119Z,102289.31
2023-03-27T09:19:20.641Z,102280.47
2023-03-27T09:21:58.712Z,102285.66
2023-03-27T09:24:30.274Z,102278.59
2023-03-27T09:27:07.148Z,102277.72
2023-03-27T09:29:40.832Z,102276.84
2023-03-27T09:32:15.968Z,102278.56
2023-03-27T09:34:45.492Z,102271.50
2023-03-27T09:37:17.499Z,102267.06
2023-03-27T09:39:51.534Z,102271.44
2023-03-27T09:42:27.685Z,102273.19
2023-03-27T09:45:00.538Z,102271.38
2023-03-27T09:47:35.350Z,102265.16
2023-03-27T09:50:21.968Z,102266.91
2023-03-27T09:52:50.198Z,102264.22
2023-03-27T09:55:28.465Z,102271.16
2023-03-27T09:58:09.986Z,102272.78
2023-03-27T10:00:38.271Z,102267.38
2023-03-27T10:03:15.005Z,102262.94
2023-03-27T10:05:47.681Z,102267.22
2023-03-27T10:08:42.696Z,102264.56
2023-03-27T10:11:18.503Z,102259.28
2023-03-27T10:13:51.716Z,102249.53
2023-03-27T10:16:22.631Z,102249.47
2023-03-27T10:18:57.804Z,102247.69
2023-03-27T10:21:36.879Z,102244.13
2023-03-27T10:24:20.822Z,102245.84
2023-03-27T10:26:53.316Z,102243.22
2023-03-27T10:29:32.650Z,102237.88
2023-03-27T10:32:05.029Z,102241.28
2023-03-27T10:34:38.437Z,102240.34
2023-03-27T10:37:32.701Z,102235.97
2023-03-27T10:40:04.409Z,102239.47
2023-03-27T10:42:34.161Z,102235.03
2023-03-27T10:45:02.561Z,102228.84
2023-03-27T10:47:35.345Z,102226.97
2023-03-27T10:50:39.240Z,102224.28
2023-03-27T10:53:18.364Z,102232.00
2023-03-27T10:56:19.901Z,102231.09
2023-03-27T10:58:58.393Z,102220.69
2023-03-27T11:01:33.016Z,102222.50
2023-03-27T11:04:10.332Z,102215.53
2023-03-27T11:06:42.447Z,102217.34
2023-03-27T11:09:24.912Z,102219.91
2023-03-27T11:12:03.896Z,102219.91
2023-03-27T11:14:53.700Z,102211.13
2023-03-27T11:17:37.414Z,102222.38
2023-03-27T11:20:12.006Z,102217.03
2023-03-27T11:22:49.229Z,102216.06
2023-03-27T11:25:34.700Z,102215.09
2023-03-27T11:28:18.266Z,102216.84
2023-03-27T11:31:12.181Z,102213.25
2023-03-27T11:33:46.084Z,102211.41
2023-03-27T11:36:33.326Z,102205.31
2023-03-27T11:39:06.395Z,102204.44
2023-03-27T11:41:34.806Z,102197.41
2023-03-27T11:44:03.124Z,102197.41
2023-03-27T11:46:31.313Z,102198.22
2023-03-27T11:49:15.848Z,102189.44
2023-03-27T11:51:46.984Z,102193.75
2023-03-27T11:54:33.185Z,102194.53
2023-03-27T11:57:04.591Z,102193.53
2023-03-27T11:59:54.519Z,102191.63
2023-03-27T12:02:40.904Z,102190.66
2023-03-27T12:05:47.442Z,102192.34
2023-03-27T12:08:35.977Z,102189.75
2023-03-27T12:11:07.292Z,102183.56
2023-03-27T12:14:01.727Z,102193.19
2023-03-27T12:16:59.292Z,102189.53
2023-03-27T12:19:51.693Z,102186.09
2023-03-27T12:22:37.660Z,102197.44
2023-03-27T12:25:23.929Z,102196.50
2023-03-27T12:28:23.146Z,102205.94
2023-03-27T12:31:20.738Z,102192.81
2023-03-27T12:34:23.820Z,102185.78
2023-03-27T12:36:53.175Z,102196.97
2023-03-27T12:39:25.950Z,102190.84
2023-03-27T12:41:54.373Z,102199.63
2023-03-27T12:44:31.456Z,102200.47
2023-03-27T12:47:15.328Z,102198.75
2023-03-27T12:49:48.029Z,102199.63
2023-03-27T12:52:19.565Z,102206.56
2023-03-27T12:55:27.716Z,102216.97
2023-03-27T12:57:56.223Z,102209.97
2023-03-27T13:00:27.212Z,102199.41
2023-03-27T13:03:08.568Z,102211.53
2023-03-27T13:05:37.044Z,102205.44
2023-03-27T13:08:33.060Z,102204.53
2023-03-27T13:11:19.447Z,102205.41
2023-03-27T13:14:02.659Z,102212.41
2023-03-27T13:16:49.288Z,102208.13
2023-03-27T13:19:35.538Z,102208.22
2023-03-27T13:22:15.036Z,102209.13
2023-03-27T13:25:09.575Z,102206.63
2023-03-27T13:28:14.845Z,102211.94
2023-03-27T13:30:49.490Z,102207.50
2023-03-27T13:33:32.405Z,102208.34
2023-03-27T13:36:01.130Z,102216.09
2023-03-27T13:38:49.966Z,102215.97
2023-03-27T13:41:46.518Z,102211.47
2023-03-27T13:44:29.964Z,102208.81
2023-03-27T13:47:35.667Z,102213.06
2023-03-27T13:50:31.840Z,102214.59
2023-03-27T13:53:27.510Z,102215.41
2023-03-27T13:56:04.049Z,102210.13
2023-03-27T13:58:40.760Z,102208.47
2023-03-27T14:01:27.035Z,102202.28
2023-03-27T14:04:07.957Z,102204.91
2023-03-27T14:07:05.343Z,102203.25
2023-03-27T14:09:47.051Z,102199.78
2023-03-27T14:12:23.949Z,102204.25
2023-03-27T14:15:33.173Z,102199.13
2023-03-27T14:18:34.075Z,102199.16
2023-03-27T14:21:04.898Z,102196.59
2023-03-27T14:23:44.355Z,102199.38
2023-03-27T14:26:23.485Z,102204.66
2023-03-27T14:29:00.328Z,102201.22
2023-03-27T14:31:36.129Z,102205.63
2023-03-27T14:34:26.392Z,102209.22
2023-03-27T14:36:54.821Z,102204.84
2023-03-27T14:39:38.453Z,102209.25
2023-03-27T14:42:17.512Z,102210.22
2023-03-27T14:44:45.989Z,102211.25
2023-03-27T14:47:18.469Z,102207.97
2023-03-27T14:49:51.109Z,102208.16
2023-03-27T14:52:36.163Z,102210.91
2023-03-27T14:55:05.928Z,102212.81
2023-03-27T14:57:35.081Z,102210.38
2023-03-27T15:00:07.711Z,102208.88
2023-03-27T15:02:36.622Z,102200.28
2023-03-27T15:05:17.882Z,102195.22
2023-03-27T15:07:49.708Z,102200.63
2023-03-27T15:10:27.452Z,102197.31
2023-03-27T15:12:56.818Z,102198.41
2023-03-27T15:15:43.480Z,102200.31
2023-03-27T15:18:20.141Z,102197.00
2023-03-27T15:20:51.321Z,102204.19
2023-03-27T15:23:34.520Z,102200.84
2023-03-27T15:26:10.208Z,102210.69
2023-03-27T15:28:44.570Z,102206.44
2023-03-27T15:31:15.529Z,102203.97
2023-03-27T15:34:04.322Z,102206.75
2023-03-27T15:36:36.146Z,102208.66
2023-03-27T15:39:07.562Z,102212.34
2023-03-27T15:41:35.964Z,102218.59
2023-03-27T15:44:17.927Z,102217.81
2023-03-27T15:46:53.944Z,102210.06
2023-03-27T15:49:35.469Z,102216.34
2023-03-27T15:52:46.419Z,102201.56
2023-03-27T15:55:14.792Z,102206.03
2023-03-27T15:57:44.988Z,102205.22
2023-03-27T16:00:15.548Z,102199.16
2023-03-27T16:02:44.147Z,102201.00
2023-03-27T16:05:17.813Z,102195.84
2023-03-27T16:07:49.464Z,102196.78
2023-03-27T16:10:33.445Z,102199.53
2023-03-27T16:13:04.919Z,102189.03
2023-03-27T16:15:37.798Z,102195.22
2023-03-27T16:18:22.748Z,102188.25
2023-03-27T16:20:51.064Z,102188.28
2023-03-27T16:23:19.363Z,102179.50
2023-03-27T16:25:47.610Z,102182.19
2023-03-27T16:28:21.361Z,102183.09
2023-03-27T16:30:50.738Z,102176.94
2023-03-27T16:33:23.347Z,102175.19
2023-03-27T16:35:52.466Z,102180.50
2023-03-27T16:38:21.707Z,102176.97
2023-03-27T16:40:50.480Z,102175.19
2023-03-27T16:43:18.767Z,102172.56
2023-03-27T16:45:48.150Z,102169.00
2023-03-27T16:48:16.645Z,102166.34
2023-03-27T16:50:45.235Z,102156.66
2023-03-27T16:53:13.512Z,102157.50
2023-03-27T16:55:41.742Z,102159.25
2023-03-27T16:58:10.493Z,102159.22
2023-03-27T17:00:38.861Z,102158.31
2023-03-27T17:03:07.077Z,102157.38
2023-03-27T17:05:35.370Z,102163.47
2023-03-27T17:08:05.283Z,102159.03
2023-03-27T17:10:35.040Z,102148.38
2023-03-27T17:13:03.964Z,102150.97
2023-03-27T17:15:32.199Z,102144.72
2023-03-27T17:18:00.477Z,102137.59
2023-03-27T17:20:28.743Z,102132.19
2023-03-27T17:22:57.049Z,102135.66
2023-03-27T17:25:25.290Z,102132.91
2023-03-27T17:27:53.516Z,102130.19
2023-03-27T17:30:34.634Z,102134.50
2023-03-27T17:33:06.714Z,102125.56
2023-03-27T17:35:35.177Z,102120.19
2023-03-27T17:38:04.354Z,102115.69
2023-03-27T17:40:32.555Z,102117.38
2023-03-27T17:43:01.397Z,102111.09
2023-03-27T17:45:29.671Z,102111.09
2023-03-27T17:47:57.931Z,102115.44
2023-03-27T17:50:26.227Z,102103.91
2023-03-27T17:52:54.576Z,102100.31
2023-03-27T17:55:22.831Z,102101.13
2023-03-27T17:57:58.642Z,102101.91
2023-03-27T18:00:36.329Z,102103.53
2023-03-27T18:03:05.481Z,102100.75
2023-03-27T18:05:38.949Z,102102.38
2023-03-27T18:08:08.696Z,102100.44
2023-03-27T18:10:37.209Z,102093.28
2023-03-27T18:13:05.599Z,102089.59
2023-03-27T18:15:33.961Z,102091.28
2023-03-27T18:18:02.271Z,102092.84
2023-03-27T18:20:30.481Z,102090.97
2023-03-27T18:22:58.745Z,102087.31
2023-03-27T18:25:27.206Z,102083.69
2023-03-27T18:27:55.576Z,102091.50
2023-03-27T18:30:24.758Z,102076.34
2023-03-27T18:32:53.057Z,102074.44
2023-03-27T18:35:21.858Z,102081.22
2023-03-27T18:37:50.105Z,102080.03
2023-03-27T18:40:19.855Z,102084.25
2023-03-27T18:42:48.138Z,102069.03
2023-03-27T18:45:18.113Z,102070.53
2023-03-27T18:47:46.990Z,102067.63
2023-03-27T18:50:16.345Z,102061.13
2023-03-27T18:52:45.033Z,102052.81
2023-03-27T18:55:14.192Z,102053.44
2023-03-27T18:57:42.376Z,102045.16
2023-03-27T19:00:14.701Z,102048.47
2023-03-27T19:02:43.663Z,102041.00
2023-03-27T19:05:12.481Z,102035.41
2023-03-27T19:07:44.317Z,102033.38
2023-03-27T19:10:14.821Z,102029.47
2023-03-27T19:12:43.132Z,102014.78
2023-03-27T19:15:22.379Z,102009.22
2023-03-27T19:17:50.712Z,101997.22
2023-03-27T19:20:19.134Z,102001.97
2023-03-27T19:22:47.356Z,101987.34
2023-03-27T19:25:15.734Z,101978.22
2023-03-27T19:27:44.519Z,101971.75
2023-03-27T19:30:14.788Z,101968.78
2023-03-27T19:32:43.395Z,101963.16
2023-03-27T19:35:12.315Z,101959.31
2023-03-27T19:37:40.563Z,101952.91
2023-03-27T19:40:09.908Z,101950.00
2023-03-27T19:42:38.147Z,101938.69
2023-03-27T19:45:07.407Z,101932.13
2023-03-27T19:47:36.062Z,101941.63
2023-03-27T19:50:04.842Z,101934.00
2023-03-27T19:52:33.286Z,101928.22
2023-03-27T19:55:02.094Z,101932.94
2023-03-27T19:57:31.502Z,101922.75
2023-03-27T19:59:59.854Z,101922.59
2023-03-27T20:02:28.375Z,101914.53
2023-03-27T20:04:56.730Z,101903.63
2023-03-27T20:07:24.957Z,101907.59
2023-03-27T20:09:53.173Z,101902.78
2023-03-27T20:12:22.088Z,101909.34
2023-03-27T20:15:02.846Z,101895.38
2023-03-27T20:17:38.611Z,101893.50
2023-03-27T20:20:09.596Z,101887.09
2023-03-27T20:22:50.096Z,101887.47
2023-03-27T20:25:23.135Z,101882.31
2023-03-27T20:27:51.696Z,101874.13
2023-03-27T20:30:20.140Z,101862.13
2023-03-27T20:32:48.413Z,101863.41
2023-03-27T20:35:24.437Z,101849.56
2023-03-27T20:37:56.836Z,101852.50
2023-03-27T20:40:26.782Z,101848.63
2023-03-27T20:43:13.563Z,101844.63
2023-03-27T20:45:46.498Z,101847.84
2023-03-27T20:48:17.015Z,101839.38
2023-03-27T20:50:56.226Z,101839.50
2023-03-27T20:53:34.078Z,101840.38
2023-03-27T20:56:07.432Z,101838.75
2023-03-27T20:58:37.982Z,101826.69
2023-03-27T21:01:09.729Z,101827.16
2023-03-27T21:03:40.778Z,101816.81
2023-03-27T21:06:15.724Z,101813.06
2023-03-27T21:08:44.381Z,101812.69
2023-03-27T21:11:13.227Z,101809.34
2023-03-27T21:13:41.764Z,101808.88
2023-03-27T21:16:10.475Z,101804.56
2023-03-27T21:18:38.791Z,101803.19
2023-03-27T21:21:07.236Z,101799.06
2023-03-27T21:23:40.056Z,101798.97
2023-03-27T21:26:08.993Z,101787.25
2023-03-27T21:28:37.285Z,101779.47
2023-03-27T21:31:10.076Z,101778.16
2023-03-27T21:33:38.930Z,101779.84
2023-03-27T21:36:07.638Z,101777.31
2023-03-27T21:38:36.232Z,101771.41
2023-03-27T21:41:05.272Z,101763.97
2023-03-27T21:43:33.887Z,101762.94
2023-03-27T21:46:04.287Z,101758.16
2023-03-27T21:48:32.714Z,101756.28
2023-03-27T21:51:06.301Z,101751.59
2023-03-27T21:53:34.581Z,101749.56
2023-03-27T21:56:02.996Z,101741.13
2023-03-27T21:58:31.750Z,101740.91
2023-03-27T22:01:00.122Z,101731.88
2023-03-27T22:03:29.928Z,101738.69
2023-03-27T22:06:12.449Z,101724.06
2023-03-27T22:08:42.868Z,101728.09
2023-03-27T22:11:12.810Z,101728.50
2023-03-27T22:13:42.424Z,101727.72
2023-03-27T22:16:12.763Z,101731.84
2023-03-27T22:18:42.124Z,101718.03
2023-03-27T22:21:27.835Z,101727.78
2023-03-27T22:23:58.206Z,101721.81
2023-03-27T22:26:30.197Z,101718.56
2023-03-27T22:28:58.769Z,101718.63
2023-03-27T22:31:27.920Z,101718.53
2023-03-27T22:33:56.619Z,101711.19
2023-03-27T22:36:25.007Z,101716.91
2023-03-27T22:38:53.333Z,101715.00
2023-03-27T22:41:22.149Z,101712.34
2023-03-27T22:43:50.426Z,101710.72
2023-03-27T22:46:21.581Z,101709.00
2023-03-27T22:48:56.197Z,101710.38
2023-03-27T22:51:25.657Z,101707.03
2023-03-27T22:53:53.972Z,101714.81
2023-03-27T22:56:22.432Z,101714.66
2023-03-27T22:58:50.745Z,101714.47
2023-03-27T23:01:19.025Z,101711.91
2023-03-27T23:03:47.440Z,101705.72
2023-03-27T23:06:20.578Z,101701.31
2023-03-27T23:08:52.114Z,101702.66
2023-03-27T23:11:21.190Z,101707.75
2023-03-27T23:13:49.769Z,101706.56
2023-03-27T23:16:18.042Z,101709.06
2023-03-27T23:18:46.799Z,101701.50
2023-03-27T23:21:18.514Z,101692.03
2023-03-27T23:23:46.998Z,101703.06
2023-03-27T23:26:15.773Z,101703.72
2023-03-27T23:28:44.272Z,101693.06
2023-03-27T23:31:15.457Z,101698.16
2023-03-27T23:33:46.041Z,101690.94
2023-03-27T23:36:17.402Z,101693.09
2023-03-27T23:38:46.494Z,101694.31
2023-03-27T23:41:16.679Z,101696.31
2023-03-27T23:43:45.962Z,101690.34
2023-03-27T23:46:14.552Z,101700.50
2023-03-27T23:48:44.232Z,101705.72
2023-03-27T23:51:15.158Z,101705.41
2023-03-27T23:53:43.596Z,101712.50
2023-03-27T23:56:12.243Z,101715.28
2023-03-27T23:58:40.792Z,101704.28
